sensor_id;sensor_type;location;lat;lon;timestamp;P1;durP1;ratioP1;P2;durP2;ratioP2
43070;SDS011;36278;47.952;21.714;2022-10-20T00:01:02;4.57;;;1.70;;
43070;SDS011;36278;47.952;21.714;2022-10-20T00:03:27;5.03;;;2.00;;
43070;SDS011;36278;47.952;21.714;2022-10-20T00:05:53;4.13;;;2.10;;
43070;SDS011;36278;47.952;21.714;2022-10-20T00:08:29;3.13;;;2.20;;
43070;SDS011;36278;47.952;21.714;2022-10-20T00:10:55;4.07;;;1.90;;
43070;SDS011;36278;47.952;21.714;2022-10-20T00:13:21;4.67;;;2.10;;
43070;SDS011;36278;47.952;21.714;2022-10-20T00:15:48;5.60;;;2.10;;
43070;SDS011;36278;47.952;21.714;2022-10-20T00:18:14;4.97;;;2.30;;
43070;SDS011;36278;47.952;21.714;2022-10-20T00:20:40;3.80;;;2.07;;
43070;SDS011;36278;47.952;21.714;2022-10-20T00:23:05;3.77;;;2.27;;
43070;SDS011;36278;47.952;21.714;2022-10-20T00:25:31;3.63;;;1.90;;
43070;SDS011;36278;47.952;21.714;2022-10-20T00:27:56;5.53;;;2.00;;
43070;SDS011;36278;47.952;21.714;2022-10-20T00:30:22;3.37;;;1.77;;
43070;SDS011;36278;47.952;21.714;2022-10-20T00:32:47;3.57;;;2.07;;
43070;SDS011;36278;47.952;21.714;2022-10-20T00:35:13;3.30;;;1.90;;
43070;SDS011;36278;47.952;21.714;2022-10-20T00:37:38;4.47;;;2.23;;
43070;SDS011;36278;47.952;21.714;2022-10-20T00:40:04;3.37;;;2.03;;
43070;SDS011;36278;47.952;21.714;2022-10-20T00:42:30;3.20;;;1.93;;
43070;SDS011;36278;47.952;21.714;2022-10-20T00:44:56;3.13;;;1.90;;
43070;SDS011;36278;47.952;21.714;2022-10-20T00:47:33;2.90;;;1.90;;
43070;SDS011;36278;47.952;21.714;2022-10-20T00:50:11;3.50;;;2.13;;
43070;SDS011;36278;47.952;21.714;2022-10-20T00:52:37;5.23;;;2.20;;
43070;SDS011;36278;47.952;21.714;2022-10-20T00:55:04;6.27;;;2.20;;
43070;SDS011;36278;47.952;21.714;2022-10-20T00:57:32;3.20;;;2.10;;
43070;SDS011;36278;47.952;21.714;2022-10-20T00:59:59;3.70;;;1.77;;
43070;SDS011;36278;47.952;21.714;2022-10-20T01:02:24;4.07;;;1.87;;
43070;SDS011;36278;47.952;21.714;2022-10-20T01:04:50;2.60;;;2.00;;
43070;SDS011;36278;47.952;21.714;2022-10-20T01:07:16;2.60;;;1.90;;
43070;SDS011;36278;47.952;21.714;2022-10-20T01:09:41;3.27;;;2.00;;
43070;SDS011;36278;47.952;21.714;2022-10-20T01:20:28;3.23;;;2.10;;
43070;SDS011;36278;47.952;21.714;2022-10-20T01:26:02;4.33;;;2.17;;
43070;SDS011;36278;47.952;21.714;2022-10-20T01:28:51;3.60;;;1.90;;
43070;SDS011;36278;47.952;21.714;2022-10-20T01:39:57;3.43;;;2.10;;
43070;SDS011;36278;47.952;21.714;2022-10-20T01:42:20;4.28;;;2.10;;
43070;SDS011;36278;47.952;21.714;2022-10-20T01:44:49;2.63;;;1.90;;
43070;SDS011;36278;47.952;21.714;2022-10-20T01:47:18;6.20;;;2.27;;
43070;SDS011;36278;47.952;21.714;2022-10-20T01:49:47;3.37;;;2.00;;
43070;SDS011;36278;47.952;21.714;2022-10-20T01:52:13;6.57;;;2.27;;
43070;SDS011;36278;47.952;21.714;2022-10-20T01:54:39;4.73;;;2.07;;
43070;SDS011;36278;47.952;21.714;2022-10-20T01:57:18;5.00;;;2.20;;
43070;SDS011;36278;47.952;21.714;2022-10-20T02:02:37;3.27;;;1.93;;
43070;SDS011;36278;47.952;21.714;2022-10-20T02:14:10;5.70;;;2.20;;
43070;SDS011;36278;47.952;21.714;2022-10-20T02:16:39;3.80;;;2.27;;
43070;SDS011;36278;47.952;21.714;2022-10-20T02:19:09;6.27;;;2.07;;
43070;SDS011;36278;47.952;21.714;2022-10-20T02:21:37;3.03;;;1.70;;
43070;SDS011;36278;47.952;21.714;2022-10-20T02:24:03;3.77;;;1.93;;
43070;SDS011;36278;47.952;21.714;2022-10-20T02:26:31;7.47;;;1.90;;
43070;SDS011;36278;47.952;21.714;2022-10-20T02:28:59;3.77;;;1.80;;
43070;SDS011;36278;47.952;21.714;2022-10-20T02:31:28;3.20;;;1.90;;
43070;SDS011;36278;47.952;21.714;2022-10-20T02:33:55;6.07;;;2.20;;
43070;SDS011;36278;47.952;21.714;2022-10-20T02:36:24;4.33;;;1.97;;
43070;SDS011;36278;47.952;21.714;2022-10-20T02:38:51;6.60;;;2.17;;
43070;SDS011;36278;47.952;21.714;2022-10-20T02:41:17;3.13;;;2.10;;
43070;SDS011;36278;47.952;21.714;2022-10-20T02:43:43;5.40;;;1.90;;
43070;SDS011;36278;47.952;21.714;2022-10-20T02:46:08;3.43;;;1.90;;
43070;SDS011;36278;47.952;21.714;2022-10-20T02:48:34;2.73;;;1.90;;
43070;SDS011;36278;47.952;21.714;2022-10-20T02:50:59;3.73;;;1.83;;
43070;SDS011;36278;47.952;21.714;2022-10-20T02:53:25;6.13;;;2.00;;
43070;SDS011;36278;47.952;21.714;2022-10-20T02:55:50;3.93;;;1.97;;
43070;SDS011;36278;47.952;21.714;2022-10-20T02:58:16;8.50;;;2.20;;
43070;SDS011;36278;47.952;21.714;2022-10-20T03:00:41;4.97;;;2.10;;
43070;SDS011;36278;47.952;21.714;2022-10-20T03:03:07;5.53;;;1.80;;
43070;SDS011;36278;47.952;21.714;2022-10-20T03:05:32;3.10;;;2.20;;
43070;SDS011;36278;47.952;21.714;2022-10-20T03:08:02;3.17;;;2.00;;
43070;SDS011;36278;47.952;21.714;2022-10-20T03:10:27;4.20;;;2.27;;
43070;SDS011;36278;47.952;21.714;2022-10-20T03:12:53;5.50;;;1.90;;
43070;SDS011;36278;47.952;21.714;2022-10-20T03:15:18;4.70;;;2.00;;
43070;SDS011;36278;47.952;21.714;2022-10-20T03:17:44;5.20;;;2.17;;
43070;SDS011;36278;47.952;21.714;2022-10-20T03:20:09;5.60;;;1.80;;
43070;SDS011;36278;47.952;21.714;2022-10-20T03:22:35;2.47;;;1.50;;
43070;SDS011;36278;47.952;21.714;2022-10-20T03:25:00;2.93;;;1.97;;
43070;SDS011;36278;47.952;21.714;2022-10-20T03:27:26;3.40;;;1.70;;
43070;SDS011;36278;47.952;21.714;2022-10-20T03:29:51;2.60;;;1.50;;
43070;SDS011;36278;47.952;21.714;2022-10-20T03:32:17;2.33;;;1.60;;
43070;SDS011;36278;47.952;21.714;2022-10-20T03:34:42;4.23;;;1.80;;
43070;SDS011;36278;47.952;21.714;2022-10-20T03:37:08;3.73;;;1.63;;
43070;SDS011;36278;47.952;21.714;2022-10-20T03:39:33;4.50;;;2.13;;
43070;SDS011;36278;47.952;21.714;2022-10-20T03:41:59;5.20;;;1.83;;
43070;SDS011;36278;47.952;21.714;2022-10-20T03:44:24;4.87;;;1.60;;
43070;SDS011;36278;47.952;21.714;2022-10-20T03:46:50;3.73;;;1.67;;
43070;SDS011;36278;47.952;21.714;2022-10-20T03:49:15;3.83;;;1.63;;
43070;SDS011;36278;47.952;21.714;2022-10-20T03:51:41;2.40;;;1.50;;
43070;SDS011;36278;47.952;21.714;2022-10-20T03:54:06;5.23;;;2.03;;
43070;SDS011;36278;47.952;21.714;2022-10-20T03:56:32;4.53;;;2.20;;
43070;SDS011;36278;47.952;21.714;2022-10-20T03:58:57;3.97;;;1.60;;
43070;SDS011;36278;47.952;21.714;2022-10-20T04:01:27;3.03;;;1.50;;
43070;SDS011;36278;47.952;21.714;2022-10-20T04:03:55;4.22;;;2.00;;
43070;SDS011;36278;47.952;21.714;2022-10-20T04:06:20;5.63;;;2.27;;
43070;SDS011;36278;47.952;21.714;2022-10-20T04:08:46;2.57;;;1.57;;
43070;SDS011;36278;47.952;21.714;2022-10-20T04:11:11;5.27;;;2.03;;
43070;SDS011;36278;47.952;21.714;2022-10-20T04:13:37;7.03;;;1.57;;
43070;SDS011;36278;47.952;21.714;2022-10-20T04:16:03;7.10;;;1.67;;
43070;SDS011;36278;47.952;21.714;2022-10-20T04:18:29;3.43;;;1.67;;
43070;SDS011;36278;47.952;21.714;2022-10-20T04:20:55;6.47;;;1.70;;
43070;SDS011;36278;47.952;21.714;2022-10-20T04:23:20;2.93;;;1.20;;
43070;SDS011;36278;47.952;21.714;2022-10-20T04:25:46;3.63;;;1.33;;
43070;SDS011;36278;47.952;21.714;2022-10-20T04:28:16;4.83;;;1.50;;
43070;SDS011;36278;47.952;21.714;2022-10-20T04:30:43;4.47;;;1.70;;
43070;SDS011;36278;47.952;21.714;2022-10-20T04:33:10;3.13;;;1.50;;
43070;SDS011;36278;47.952;21.714;2022-10-20T04:35:36;6.40;;;1.73;;
43070;SDS011;36278;47.952;21.714;2022-10-20T04:38:02;14.43;;;2.00;;
43070;SDS011;36278;47.952;21.714;2022-10-20T04:40:28;13.80;;;1.90;;
43070;SDS011;36278;47.952;21.714;2022-10-20T04:42:53;5.27;;;1.47;;
43070;SDS011;36278;47.952;21.714;2022-10-20T04:45:19;5.73;;;1.97;;
43070;SDS011;36278;47.952;21.714;2022-10-20T04:47:44;4.03;;;1.70;;
43070;SDS011;36278;47.952;21.714;2022-10-20T04:50:10;3.70;;;1.87;;
43070;SDS011;36278;47.952;21.714;2022-10-20T04:52:35;5.83;;;2.33;;
43070;SDS011;36278;47.952;21.714;2022-10-20T04:55:00;7.03;;;1.90;;
43070;SDS011;36278;47.952;21.714;2022-10-20T04:57:26;3.87;;;1.63;;
43070;SDS011;36278;47.952;21.714;2022-10-20T04:59:52;6.53;;;1.70;;
43070;SDS011;36278;47.952;21.714;2022-10-20T05:02:17;5.83;;;1.70;;
43070;SDS011;36278;47.952;21.714;2022-10-20T05:04:43;5.67;;;2.00;;
43070;SDS011;36278;47.952;21.714;2022-10-20T05:07:09;4.80;;;1.83;;
43070;SDS011;36278;47.952;21.714;2022-10-20T05:09:34;96.20;;;6.37;;
43070;SDS011;36278;47.952;21.714;2022-10-20T05:12:00;9.17;;;1.80;;
43070;SDS011;36278;47.952;21.714;2022-10-20T05:14:25;3.47;;;2.10;;
43070;SDS011;36278;47.952;21.714;2022-10-20T05:16:51;8.40;;;2.20;;
43070;SDS011;36278;47.952;21.714;2022-10-20T05:19:16;8.90;;;2.57;;
43070;SDS011;36278;47.952;21.714;2022-10-20T05:21:42;8.33;;;3.20;;
43070;SDS011;36278;47.952;21.714;2022-10-20T05:24:12;15.80;;;2.60;;
43070;SDS011;36278;47.952;21.714;2022-10-20T05:26:39;10.57;;;2.57;;
43070;SDS011;36278;47.952;21.714;2022-10-20T05:29:05;13.03;;;2.57;;
43070;SDS011;36278;47.952;21.714;2022-10-20T05:31:40;10.83;;;2.53;;
43070;SDS011;36278;47.952;21.714;2022-10-20T05:34:07;6.43;;;2.20;;
43070;SDS011;36278;47.952;21.714;2022-10-20T05:36:33;4.00;;;2.33;;
43070;SDS011;36278;47.952;21.714;2022-10-20T05:38:59;7.00;;;2.97;;
43070;SDS011;36278;47.952;21.714;2022-10-20T05:41:25;7.73;;;2.73;;
43070;SDS011;36278;47.952;21.714;2022-10-20T05:43:58;10.63;;;2.80;;
43070;SDS011;36278;47.952;21.714;2022-10-20T05:46:27;5.90;;;1.80;;
43070;SDS011;36278;47.952;21.714;2022-10-20T05:48:54;6.07;;;2.17;;
43070;SDS011;36278;47.952;21.714;2022-10-20T05:51:23;6.30;;;2.57;;
43070;SDS011;36278;47.952;21.714;2022-10-20T05:53:50;6.53;;;2.10;;
43070;SDS011;36278;47.952;21.714;2022-10-20T05:56:17;7.67;;;2.00;;
43070;SDS011;36278;47.952;21.714;2022-10-20T05:58:44;4.60;;;1.87;;
43070;SDS011;36278;47.952;21.714;2022-10-20T06:01:11;12.03;;;2.13;;
43070;SDS011;36278;47.952;21.714;2022-10-20T06:06:16;4.30;;;1.90;;
43070;SDS011;36278;47.952;21.714;2022-10-20T06:08:43;8.07;;;2.27;;
43070;SDS011;36278;47.952;21.714;2022-10-20T06:11:09;8.97;;;2.30;;
43070;SDS011;36278;47.952;21.714;2022-10-20T06:13:36;4.73;;;2.10;;
43070;SDS011;36278;47.952;21.714;2022-10-20T06:16:06;10.00;;;2.30;;
43070;SDS011;36278;47.952;21.714;2022-10-20T06:18:34;5.03;;;2.27;;
43070;SDS011;36278;47.952;21.714;2022-10-20T06:21:06;3.23;;;1.43;;
43070;SDS011;36278;47.952;21.714;2022-10-20T06:23:36;11.33;;;5.13;;
43070;SDS011;36278;47.952;21.714;2022-10-20T06:26:03;6.00;;;2.67;;
43070;SDS011;36278;47.952;21.714;2022-10-20T06:28:31;9.60;;;2.73;;
43070;SDS011;36278;47.952;21.714;2022-10-20T06:30:58;7.77;;;2.70;;
43070;SDS011;36278;47.952;21.714;2022-10-20T06:33:24;4.33;;;2.07;;
43070;SDS011;36278;47.952;21.714;2022-10-20T06:35:57;9.23;;;2.03;;
43070;SDS011;36278;47.952;21.714;2022-10-20T06:38:26;6.37;;;2.10;;
43070;SDS011;36278;47.952;21.714;2022-10-20T06:40:51;7.30;;;1.80;;
43070;SDS011;36278;47.952;21.714;2022-10-20T06:43:17;6.50;;;2.00;;
43070;SDS011;36278;47.952;21.714;2022-10-20T06:45:42;4.43;;;1.83;;
43070;SDS011;36278;47.952;21.714;2022-10-20T06:48:08;6.73;;;2.20;;
43070;SDS011;36278;47.952;21.714;2022-10-20T06:50:34;5.00;;;2.20;;
43070;SDS011;36278;47.952;21.714;2022-10-20T06:52:59;6.13;;;2.07;;
43070;SDS011;36278;47.952;21.714;2022-10-20T06:55:25;5.97;;;1.70;;
43070;SDS011;36278;47.952;21.714;2022-10-20T06:57:50;24.63;;;3.37;;
43070;SDS011;36278;47.952;21.714;2022-10-20T07:00:16;3.97;;;1.80;;
43070;SDS011;36278;47.952;21.714;2022-10-20T07:02:41;5.07;;;1.53;;
43070;SDS011;36278;47.952;21.714;2022-10-20T07:05:07;4.20;;;1.70;;
43070;SDS011;36278;47.952;21.714;2022-10-20T07:07:32;3.73;;;1.50;;
43070;SDS011;36278;47.952;21.714;2022-10-20T07:09:58;4.80;;;1.60;;
43070;SDS011;36278;47.952;21.714;2022-10-20T07:12:23;3.47;;;1.63;;
43070;SDS011;36278;47.952;21.714;2022-10-20T07:14:49;15.33;;;2.40;;
43070;SDS011;36278;47.952;21.714;2022-10-20T07:17:14;5.77;;;1.67;;
43070;SDS011;36278;47.952;21.714;2022-10-20T07:19:40;4.80;;;2.03;;
43070;SDS011;36278;47.952;21.714;2022-10-20T07:22:05;4.37;;;1.63;;
43070;SDS011;36278;47.952;21.714;2022-10-20T07:24:30;2.90;;;1.57;;
43070;SDS011;36278;47.952;21.714;2022-10-20T07:26:56;3.37;;;1.63;;
43070;SDS011;36278;47.952;21.714;2022-10-20T07:29:21;5.67;;;1.40;;
43070;SDS011;36278;47.952;21.714;2022-10-20T07:31:47;7.27;;;1.40;;
43070;SDS011;36278;47.952;21.714;2022-10-20T07:34:13;13.10;;;2.07;;
43070;SDS011;36278;47.952;21.714;2022-10-20T07:36:41;15.27;;;2.00;;
43070;SDS011;36278;47.952;21.714;2022-10-20T07:39:07;6.63;;;1.73;;
43070;SDS011;36278;47.952;21.714;2022-10-20T07:41:36;5.37;;;1.50;;
43070;SDS011;36278;47.952;21.714;2022-10-20T07:44:03;3.00;;;1.40;;
43070;SDS011;36278;47.952;21.714;2022-10-20T07:46:29;4.77;;;1.43;;
43070;SDS011;36278;47.952;21.714;2022-10-20T07:48:55;4.63;;;2.30;;
43070;SDS011;36278;47.952;21.714;2022-10-20T07:53:46;2.67;;;1.40;;
43070;SDS011;36278;47.952;21.714;2022-10-20T07:56:13;4.17;;;1.60;;
43070;SDS011;36278;47.952;21.714;2022-10-20T07:58:40;3.90;;;1.33;;
43070;SDS011;36278;47.952;21.714;2022-10-20T08:01:06;1.87;;;1.13;;
43070;SDS011;36278;47.952;21.714;2022-10-20T08:03:32;2.27;;;1.20;;
43070;SDS011;36278;47.952;21.714;2022-10-20T08:05:58;2.60;;;1.20;;
43070;SDS011;36278;47.952;21.714;2022-10-20T08:08:25;6.10;;;1.30;;
43070;SDS011;36278;47.952;21.714;2022-10-20T08:10:51;5.90;;;1.50;;
43070;SDS011;36278;47.952;21.714;2022-10-20T08:13:17;3.87;;;1.20;;
43070;SDS011;36278;47.952;21.714;2022-10-20T08:15:42;4.73;;;1.20;;
43070;SDS011;36278;47.952;21.714;2022-10-20T08:18:08;4.77;;;1.23;;
43070;SDS011;36278;47.952;21.714;2022-10-20T08:20:34;2.90;;;1.20;;
43070;SDS011;36278;47.952;21.714;2022-10-20T08:22:59;4.23;;;1.00;;
43070;SDS011;36278;47.952;21.714;2022-10-20T08:25:25;4.90;;;1.10;;
43070;SDS011;36278;47.952;21.714;2022-10-20T08:27:51;3.70;;;1.17;;
43070;SDS011;36278;47.952;21.714;2022-10-20T08:30:17;1.57;;;1.00;;
43070;SDS011;36278;47.952;21.714;2022-10-20T08:32:43;3.57;;;1.40;;
43070;SDS011;36278;47.952;21.714;2022-10-20T08:35:08;2.20;;;1.10;;
43070;SDS011;36278;47.952;21.714;2022-10-20T08:37:34;2.40;;;1.03;;
43070;SDS011;36278;47.952;21.714;2022-10-20T08:40:04;2.73;;;0.97;;
43070;SDS011;36278;47.952;21.714;2022-10-20T08:42:32;4.13;;;1.30;;
43070;SDS011;36278;47.952;21.714;2022-10-20T08:45:03;4.03;;;1.23;;
43070;SDS011;36278;47.952;21.714;2022-10-20T08:47:30;2.60;;;1.10;;
43070;SDS011;36278;47.952;21.714;2022-10-20T08:50:00;4.90;;;1.20;;
43070;SDS011;36278;47.952;21.714;2022-10-20T08:52:29;3.40;;;1.63;;
43070;SDS011;36278;47.952;21.714;2022-10-20T08:54:55;5.47;;;1.40;;
43070;SDS011;36278;47.952;21.714;2022-10-20T08:57:25;3.00;;;1.60;;
43070;SDS011;36278;47.952;21.714;2022-10-20T08:59:54;5.63;;;2.03;;
43070;SDS011;36278;47.952;21.714;2022-10-20T09:02:23;2.57;;;1.27;;
43070;SDS011;36278;47.952;21.714;2022-10-20T09:04:59;9.50;;;0.90;;
43070;SDS011;36278;47.952;21.714;2022-10-20T09:07:35;3.63;;;1.03;;
43070;SDS011;36278;47.952;21.714;2022-10-20T09:12:40;2.60;;;1.30;;
43070;SDS011;36278;47.952;21.714;2022-10-20T09:15:11;9.10;;;2.40;;
43070;SDS011;36278;47.952;21.714;2022-10-20T09:18:21;4.97;;;1.13;;
43070;SDS011;36278;47.952;21.714;2022-10-20T09:20:36;2.17;;;0.90;;
43070;SDS011;36278;47.952;21.714;2022-10-20T09:23:42;3.77;;;0.97;;
43070;SDS011;36278;47.952;21.714;2022-10-20T09:26:12;2.87;;;1.10;;
43070;SDS011;36278;47.952;21.714;2022-10-20T09:28:39;2.47;;;1.10;;
43070;SDS011;36278;47.952;21.714;2022-10-20T09:31:05;2.93;;;1.23;;
43070;SDS011;36278;47.952;21.714;2022-10-20T09:36:15;4.97;;;0.90;;
43070;SDS011;36278;47.952;21.714;2022-10-20T09:38:46;3.70;;;1.13;;
43070;SDS011;36278;47.952;21.714;2022-10-20T09:41:17;2.30;;;0.87;;
43070;SDS011;36278;47.952;21.714;2022-10-20T09:43:55;1.97;;;1.00;;
43070;SDS011;36278;47.952;21.714;2022-10-20T09:46:26;2.77;;;1.10;;
43070;SDS011;36278;47.952;21.714;2022-10-20T09:48:54;7.07;;;0.97;;
43070;SDS011;36278;47.952;21.714;2022-10-20T09:51:22;17.47;;;1.77;;
43070;SDS011;36278;47.952;21.714;2022-10-20T09:54:03;7.33;;;1.17;;
43070;SDS011;36278;47.952;21.714;2022-10-20T09:56:40;13.77;;;1.77;;
43070;SDS011;36278;47.952;21.714;2022-10-20T09:59:21;5.50;;;1.00;;
43070;SDS011;36278;47.952;21.714;2022-10-20T10:02:01;2.13;;;1.02;;
43070;SDS011;36278;47.952;21.714;2022-10-20T10:04:48;4.90;;;0.83;;
43070;SDS011;36278;47.952;21.714;2022-10-20T10:10:06;1.83;;;0.90;;
43070;SDS011;36278;47.952;21.714;2022-10-20T10:12:51;1.13;;;0.80;;
43070;SDS011;36278;47.952;21.714;2022-10-20T10:17:47;0.80;;;0.80;;
43070;SDS011;36278;47.952;21.714;2022-10-20T10:22:40;2.03;;;0.90;;
43070;SDS011;36278;47.952;21.714;2022-10-20T10:25:13;4.00;;;0.90;;
43070;SDS011;36278;47.952;21.714;2022-10-20T10:27:55;1.50;;;0.83;;
43070;SDS011;36278;47.952;21.714;2022-10-20T10:30:25;4.50;;;1.07;;
43070;SDS011;36278;47.952;21.714;2022-10-20T10:32:55;2.13;;;1.17;;
43070;SDS011;36278;47.952;21.714;2022-10-20T10:38:02;2.33;;;0.80;;
43070;SDS011;36278;47.952;21.714;2022-10-20T10:40:31;7.37;;;1.93;;
43070;SDS011;36278;47.952;21.714;2022-10-20T10:56:54;1.63;;;0.80;;
43070;SDS011;36278;47.952;21.714;2022-10-20T11:09:54;2.57;;;0.87;;
43070;SDS011;36278;47.952;21.714;2022-10-20T11:15:05;1.60;;;0.80;;
43070;SDS011;36278;47.952;21.714;2022-10-20T11:18:01;2.93;;;1.07;;
43070;SDS011;36278;47.952;21.714;2022-10-20T11:26:36;6.50;;;1.07;;
43070;SDS011;36278;47.952;21.714;2022-10-20T11:29:07;1.70;;;0.70;;
43070;SDS011;36278;47.952;21.714;2022-10-20T11:31:51;1.87;;;0.80;;
43070;SDS011;36278;47.952;21.714;2022-10-20T11:34:28;5.97;;;1.10;;
43070;SDS011;36278;47.952;21.714;2022-10-20T11:36:59;2.58;;;0.90;;
43070;SDS011;36278;47.952;21.714;2022-10-20T11:39:39;3.37;;;1.40;;
43070;SDS011;36278;47.952;21.714;2022-10-20T11:42:17;4.50;;;1.10;;
43070;SDS011;36278;47.952;21.714;2022-10-20T11:44:45;4.30;;;1.03;;
43070;SDS011;36278;47.952;21.714;2022-10-20T11:47:14;2.90;;;0.90;;
43070;SDS011;36278;47.952;21.714;2022-10-20T11:49:43;1.83;;;1.00;;
43070;SDS011;36278;47.952;21.714;2022-10-20T11:54:41;1.63;;;1.00;;
43070;SDS011;36278;47.952;21.714;2022-10-20T12:05:54;7.20;;;3.70;;
43070;SDS011;36278;47.952;21.714;2022-10-20T12:08:36;1.27;;;0.70;;
43070;SDS011;36278;47.952;21.714;2022-10-20T12:11:24;0.93;;;0.63;;
43070;SDS011;36278;47.952;21.714;2022-10-20T12:19:17;3.57;;;1.23;;
43070;SDS011;36278;47.952;21.714;2022-10-20T12:24:31;3.73;;;0.80;;
43070;SDS011;36278;47.952;21.714;2022-10-20T12:39:48;3.43;;;0.80;;
43070;SDS011;36278;47.952;21.714;2022-10-20T12:42:20;2.77;;;1.07;;
43070;SDS011;36278;47.952;21.714;2022-10-20T12:44:53;3.77;;;1.00;;
43070;SDS011;36278;47.952;21.714;2022-10-20T12:47:31;2.63;;;0.70;;
43070;SDS011;36278;47.952;21.714;2022-10-20T12:50:04;1.43;;;0.90;;
43070;SDS011;36278;47.952;21.714;2022-10-20T12:52:34;6.37;;;0.70;;
43070;SDS011;36278;47.952;21.714;2022-10-20T12:57:41;2.20;;;0.70;;
43070;SDS011;36278;47.952;21.714;2022-10-20T13:02:51;2.47;;;0.57;;
43070;SDS011;36278;47.952;21.714;2022-10-20T13:23:13;2.70;;;0.90;;
43070;SDS011;36278;47.952;21.714;2022-10-20T13:25:44;1.63;;;0.93;;
43070;SDS011;36278;47.952;21.714;2022-10-20T13:39:13;3.27;;;1.00;;
43070;SDS011;36278;47.952;21.714;2022-10-20T13:41:42;2.85;;;1.13;;
43070;SDS011;36278;47.952;21.714;2022-10-20T13:47:01;2.97;;;1.40;;
43070;SDS011;36278;47.952;21.714;2022-10-20T13:49:54;2.17;;;1.07;;
43070;SDS011;36278;47.952;21.714;2022-10-20T13:52:30;2.07;;;1.07;;
43070;SDS011;36278;47.952;21.714;2022-10-20T13:54:59;2.57;;;1.30;;
43070;SDS011;36278;47.952;21.714;2022-10-20T13:57:26;1.40;;;1.03;;
43070;SDS011;36278;47.952;21.714;2022-10-20T13:59:58;2.50;;;1.30;;
43070;SDS011;36278;47.952;21.714;2022-10-20T14:02:29;1.73;;;0.80;;
43070;SDS011;36278;47.952;21.714;2022-10-20T14:05:09;1.83;;;1.10;;
43070;SDS011;36278;47.952;21.714;2022-10-20T14:07:37;4.93;;;1.00;;
43070;SDS011;36278;47.952;21.714;2022-10-20T14:13:16;4.97;;;1.47;;
43070;SDS011;36278;47.952;21.714;2022-10-20T14:15:47;2.60;;;0.83;;
43070;SDS011;36278;47.952;21.714;2022-10-20T14:18:27;4.03;;;1.30;;
43070;SDS011;36278;47.952;21.714;2022-10-20T14:23:36;1.50;;;0.90;;
43070;SDS011;36278;47.952;21.714;2022-10-20T14:26:05;4.53;;;1.20;;
43070;SDS011;36278;47.952;21.714;2022-10-20T14:28:36;2.17;;;1.25;;
43070;SDS011;36278;47.952;21.714;2022-10-20T14:31:03;4.07;;;1.00;;
43070;SDS011;36278;47.952;21.714;2022-10-20T14:33:30;4.73;;;1.00;;
43070;SDS011;36278;47.952;21.714;2022-10-20T14:35:58;6.33;;;1.47;;
43070;SDS011;36278;47.952;21.714;2022-10-20T14:38:35;6.00;;;1.43;;
43070;SDS011;36278;47.952;21.714;2022-10-20T14:41:03;2.17;;;1.10;;
43070;SDS011;36278;47.952;21.714;2022-10-20T14:43:39;4.97;;;1.23;;
43070;SDS011;36278;47.952;21.714;2022-10-20T14:46:10;3.93;;;1.40;;
43070;SDS011;36278;47.952;21.714;2022-10-20T14:48:40;3.13;;;1.17;;
43070;SDS011;36278;47.952;21.714;2022-10-20T14:56:54;3.20;;;1.30;;
43070;SDS011;36278;47.952;21.714;2022-10-20T14:59:25;4.47;;;1.47;;
43070;SDS011;36278;47.952;21.714;2022-10-20T15:02:03;5.17;;;2.60;;
43070;SDS011;36278;47.952;21.714;2022-10-20T15:04:43;5.33;;;1.50;;
43070;SDS011;36278;47.952;21.714;2022-10-20T15:07:14;6.53;;;2.80;;
43070;SDS011;36278;47.952;21.714;2022-10-20T15:12:18;3.83;;;1.73;;
43070;SDS011;36278;47.952;21.714;2022-10-20T15:14:47;2.17;;;1.53;;
43070;SDS011;36278;47.952;21.714;2022-10-20T15:17:31;6.80;;;1.67;;
43070;SDS011;36278;47.952;21.714;2022-10-20T15:25:26;4.77;;;1.53;;
43070;SDS011;36278;47.952;21.714;2022-10-20T15:27:57;3.83;;;1.73;;
43070;SDS011;36278;47.952;21.714;2022-10-20T15:30:23;3.97;;;1.57;;
43070;SDS011;36278;47.952;21.714;2022-10-20T15:32:50;4.07;;;1.77;;
43070;SDS011;36278;47.952;21.714;2022-10-20T15:35:17;10.20;;;1.87;;
43070;SDS011;36278;47.952;21.714;2022-10-20T15:37:49;7.00;;;2.00;;
43070;SDS011;36278;47.952;21.714;2022-10-20T15:40:18;8.73;;;2.30;;
43070;SDS011;36278;47.952;21.714;2022-10-20T15:42:45;5.60;;;2.40;;
43070;SDS011;36278;47.952;21.714;2022-10-20T15:45:23;5.00;;;1.90;;
43070;SDS011;36278;47.952;21.714;2022-10-20T15:47:49;4.77;;;1.90;;
43070;SDS011;36278;47.952;21.714;2022-10-20T15:50:15;5.07;;;2.57;;
43070;SDS011;36278;47.952;21.714;2022-10-20T15:52:41;7.00;;;2.90;;
43070;SDS011;36278;47.952;21.714;2022-10-20T15:55:19;7.50;;;3.40;;
43070;SDS011;36278;47.952;21.714;2022-10-20T15:57:51;7.47;;;4.17;;
43070;SDS011;36278;47.952;21.714;2022-10-20T16:00:18;9.67;;;4.13;;
43070;SDS011;36278;47.952;21.714;2022-10-20T16:02:46;8.20;;;4.00;;
43070;SDS011;36278;47.952;21.714;2022-10-20T16:05:12;7.63;;;4.60;;
43070;SDS011;36278;47.952;21.714;2022-10-20T16:07:38;9.40;;;5.07;;
43070;SDS011;36278;47.952;21.714;2022-10-20T16:10:05;15.47;;;9.87;;
43070;SDS011;36278;47.952;21.714;2022-10-20T16:12:32;18.10;;;12.50;;
43070;SDS011;36278;47.952;21.714;2022-10-20T16:14:57;17.63;;;10.23;;
43070;SDS011;36278;47.952;21.714;2022-10-20T16:17:24;21.13;;;12.53;;
43070;SDS011;36278;47.952;21.714;2022-10-20T16:19:49;20.00;;;10.17;;
43070;SDS011;36278;47.952;21.714;2022-10-20T16:22:15;18.40;;;10.80;;
43070;SDS011;36278;47.952;21.714;2022-10-20T16:24:40;20.87;;;11.83;;
43070;SDS011;36278;47.952;21.714;2022-10-20T16:27:06;19.77;;;10.03;;
43070;SDS011;36278;47.952;21.714;2022-10-20T16:29:32;22.27;;;11.53;;
43070;SDS011;36278;47.952;21.714;2022-10-20T16:31:57;17.50;;;11.10;;
43070;SDS011;36278;47.952;21.714;2022-10-20T16:34:25;22.97;;;12.30;;
43070;SDS011;36278;47.952;21.714;2022-10-20T16:36:51;32.50;;;16.27;;
43070;SDS011;36278;47.952;21.714;2022-10-20T16:39:17;14.97;;;8.00;;
43070;SDS011;36278;47.952;21.714;2022-10-20T16:41:43;12.57;;;8.20;;
43070;SDS011;36278;47.952;21.714;2022-10-20T16:44:10;15.33;;;8.20;;
43070;SDS011;36278;47.952;21.714;2022-10-20T16:46:36;14.97;;;8.07;;
43070;SDS011;36278;47.952;21.714;2022-10-20T16:49:02;14.57;;;8.60;;
43070;SDS011;36278;47.952;21.714;2022-10-20T16:51:28;17.30;;;9.00;;
43070;SDS011;36278;47.952;21.714;2022-10-20T16:53:53;19.33;;;7.57;;
43070;SDS011;36278;47.952;21.714;2022-10-20T16:56:19;17.60;;;9.30;;
43070;SDS011;36278;47.952;21.714;2022-10-20T16:58:45;16.47;;;8.30;;
43070;SDS011;36278;47.952;21.714;2022-10-20T17:01:11;15.83;;;8.47;;
43070;SDS011;36278;47.952;21.714;2022-10-20T17:03:42;19.47;;;9.00;;
43070;SDS011;36278;47.952;21.714;2022-10-20T17:06:09;19.97;;;9.13;;
43070;SDS011;36278;47.952;21.714;2022-10-20T17:08:35;16.53;;;8.97;;
43070;SDS011;36278;47.952;21.714;2022-10-20T17:11:03;16.27;;;9.57;;
43070;SDS011;36278;47.952;21.714;2022-10-20T17:13:30;18.17;;;9.80;;
43070;SDS011;36278;47.952;21.714;2022-10-20T17:16:01;18.70;;;9.60;;
43070;SDS011;36278;47.952;21.714;2022-10-20T17:18:31;18.87;;;11.70;;
43070;SDS011;36278;47.952;21.714;2022-10-20T17:20:57;24.80;;;14.07;;
43070;SDS011;36278;47.952;21.714;2022-10-20T17:23:23;24.67;;;13.73;;
43070;SDS011;36278;47.952;21.714;2022-10-20T17:25:49;33.53;;;15.60;;
43070;SDS011;36278;47.952;21.714;2022-10-20T17:28:16;26.10;;;13.97;;
43070;SDS011;36278;47.952;21.714;2022-10-20T17:30:42;26.97;;;13.93;;
43070;SDS011;36278;47.952;21.714;2022-10-20T17:33:09;26.00;;;13.53;;